createdAt,value
2023-03-27T00:01:34.574Z,24.60
2023-03-27T00:04:03.043Z,28.40
2023-03-27T00:06:34.437Z,23.80
2023-03-27T00:09:03.652Z,24.60
2023-03-27T00:11:33.134Z,26.00
2023-03-27T00:14:02.775Z,35.90
2023-03-27T00:16:32.334Z,34.00
2023-03-27T00:19:00.493Z,34.40
2023-03-27T00:21:28.685Z,35.60
2023-03-27T00:23:56.879Z,37.00
2023-03-27T00:26:25.005Z,31.30
2023-03-27T00:28:54.760Z,33.10
2023-03-27T00:31:22.987Z,30.10
2023-03-27T00:33:52.671Z,36.40
2023-03-27T00:36:20.552Z,31.90
2023-03-27T00:38:49.307Z,36.00
2023-03-27T00:41:17.443Z,30.60
2023-03-27T00:43:45.536Z,31.20
2023-03-27T00:46:37.172Z,31.50
2023-03-27T00:49:10.913Z,31.90
2023-03-27T00:51:41.706Z,32.50
2023-03-27T00:54:10.821Z,41.30
2023-03-27T00:56:39.519Z,36.50
2023-03-27T00:59:13.673Z,35.30
2023-03-27T01:01:43.453Z,39.70
2023-03-27T01:04:13.519Z,37.70
2023-03-27T01:06:43.389Z,35.90
2023-03-27T01:09:21.363Z,39.60
2023-03-27T01:12:07.182Z,35.80
2023-03-27T01:14:42.655Z,32.80
2023-03-27T01:17:24.404Z,27.40
2023-03-27T01:20:38.241Z,24.70
2023-03-27T01:23:59.424Z,19.80
2023-03-27T01:27:02.422Z,17.10
2023-03-27T01:29:43.163Z,14.10
2023-03-27T01:32:44.253Z,12.70
2023-03-27T01:35:33.369Z,11.50
2023-03-27T01:38:30.548Z,11.10
2023-03-27T01:41:06.738Z,9.50
2023-03-27T01:43:37.661Z,9.90
2023-03-27T01:46:09.751Z,10.20
2023-03-27T01:48:44.444Z,13.20
2023-03-27T01:51:16.795Z,25.90
2023-03-27T01:53:52.119Z,34.90
2023-03-27T01:56:26.843Z,44.50
2023-03-27T01:59:03.984Z,50.80
2023-03-27T02:01:37.311Z,52.70
2023-03-27T02:04:09.272Z,57.20
2023-03-27T02:06:43.713Z,55.40
2023-03-27T02:09:17.410Z,59.90
2023-03-27T02:11:52.811Z,61.10
2023-03-27T02:14:23.818Z,64.00
2023-03-27T02:16:56.570Z,62.60
2023-03-27T02:19:33.498Z,64.90
2023-03-27T02:22:01.719Z,65.30
2023-03-27T02:24:29.970Z,65.70
2023-03-27T02:27:06.286Z,65.60
2023-03-27T02:29:48.753Z,71.20
2023-03-27T02:32:29.098Z,72.80
2023-03-27T02:35:05.355Z,74.30
2023-03-27T02:37:41.597Z,74.00
2023-03-27T02:40:15.258Z,72.50
2023-03-27T02:42:56.760Z,75.90
2023-03-27T02:45:30.046Z,77.40
2023-03-27T02:48:02.757Z,81.70
2023-03-27T02:50:37.192Z,77.50
2023-03-27T02:53:08.120Z,77.90
2023-03-27T02:55:41.305Z,78.00
2023-03-27T02:58:16.373Z,76.20
2023-03-27T03:00:48.989Z,73.80
2023-03-27T03:03:21.653Z,70.40
2023-03-27T03:05:50.813Z,69.80
2023-03-27T03:08:21.688Z,75.30
2023-03-27T03:10:50.075Z,80.50
2023-03-27T03:13:19.807Z,77.20
2023-03-27T03:15:49.545Z,75.00
2023-03-27T03:18:19.031Z,74.10
2023-03-27T03:20:47.077Z,69.10
2023-03-27T03:23:15.128Z,59.50
2023-03-27T03:25:44.709Z,58.70
2023-03-27T03:28:13.020Z,61.40
2023-03-27T03:30:45.505Z,61.10
2023-03-27T03:33:14.218Z,58.50
2023-03-27T03:35:43.182Z,56.20
2023-03-27T03:38:11.312Z,60.10
2023-03-27T03:40:39.609Z,64.60
2023-03-27T03:43:07.782Z,67.00
2023-03-27T03:45:35.815Z,68.50
2023-03-27T03:48:05.465Z,73.00
2023-03-27T03:50:33.553Z,72.30
2023-03-27T03:53:01.621Z,76.30
2023-03-27T03:55:29.729Z,74.20
2023-03-27T03:57:58.494Z,76.70
2023-03-27T04:00:26.838Z,78.70
2023-03-27T04:02:55.662Z,79.80
2023-03-27T04:05:25.160Z,80.80
2023-03-27T04:07:53.437Z,82.90
2023-03-27T04:10:21.496Z,83.90
2023-03-27T04:12:49.859Z,87.10
2023-03-27T04:15:18.562Z,86.40
2023-03-27T04:17:48.481Z,85.50
2023-03-27T04:20:18.239Z,86.20
2023-03-27T04:22:48.546Z,86.20
2023-03-27T04:25:18.330Z,85.10
2023-03-27T04:27:46.623Z,84.90
2023-03-27T04:30:15.614Z,89.30
2023-03-27T04:32:43.825Z,92.10
2023-03-27T04:35:12.276Z,91.60
2023-03-27T04:37:41.922Z,92.00
2023-03-27T04:40:13.254Z,92.10
2023-03-27T04:42:43.911Z,93.00
2023-03-27T04:45:14.076Z,93.10
2023-03-27T04:47:42.698Z,92.90
2023-03-27T04:50:12.870Z,94.40
2023-03-27T04:52:40.961Z,94.00
2023-03-27T04:55:11.469Z,94.20
2023-03-27T04:57:41.720Z,93.90
2023-03-27T05:00:16.400Z,94.40
2023-03-27T05:02:44.913Z,95.70
2023-03-27T05:05:13.929Z,95.20
2023-03-27T05:07:46.636Z,96.00
2023-03-27T05:10:15.798Z,95.30
2023-03-27T05:12:46.337Z,94.40
2023-03-27T05:15:16.022Z,95.30
2023-03-27T05:17:45.666Z,95.50
2023-03-27T05:20:14.942Z,95.60
2023-03-27T05:22:43.840Z,96.60
2023-03-27T05:25:13.675Z,97.70
2023-03-27T05:27:47.267Z,98.10
2023-03-27T05:30:16.965Z,98.40
2023-03-27T05:32:49.319Z,99.10
2023-03-27T05:35:18.116Z,98.60
2023-03-27T05:37:48.700Z,99.00
2023-03-27T05:40:17.801Z,98.10
2023-03-27T05:42:48.256Z,98.40
2023-03-27T05:45:16.951Z,98.30
2023-03-27T05:47:47.018Z,98.10
2023-03-27T05:50:15.858Z,97.90
2023-03-27T05:52:44.120Z,97.90
2023-03-27T05:55:12.850Z,97.00
2023-03-27T05:57:41.828Z,97.10
2023-03-27T06:00:14.364Z,95.70
2023-03-27T06:02:44.871Z,96.60
2023-03-27T06:05:14.851Z,96.60
2023-03-27T06:07:43.829Z,95.00
2023-03-27T06:10:14.422Z,95.20
2023-03-27T06:12:43.273Z,93.80
2023-03-27T06:15:14.538Z,93.60
2023-03-27T06:17:48.348Z,92.60
2023-03-27T06:20:16.445Z,92.20
2023-03-27T06:22:47.028Z,91.90
2023-03-27T06:25:15.586Z,90.80
2023-03-27T06:27:43.888Z,91.20
2023-03-27T06:30:14.351Z,92.60
2023-03-27T06:32:45.407Z,91.10
2023-03-27T06:35:14.941Z,92.00
2023-03-27T06:37:43.007Z,91.70
2023-03-27T06:40:20.144Z,91.20
2023-03-27T06:42:52.743Z,90.10
2023-03-27T06:45:23.220Z,90.20
2023-03-27T06:47:54.852Z,87.40
2023-03-27T06:50:26.931Z,87.80
2023-03-27T06:52:55.237Z,83.50
2023-03-27T06:55:25.611Z,58.80
2023-03-27T06:57:55.433Z,52.70
2023-03-27T07:00:28.831Z,51.70
2023-03-27T07:02:57.921Z,55.20
2023-03-27T07:05:26.701Z,32.30
2023-03-27T07:07:55.901Z,19.70
2023-03-27T07:10:26.143Z,23.40
2023-03-27T07:12:55.530Z,24.50
2023-03-27T07:15:25.918Z,20.20
2023-03-27T07:17:55.349Z,20.70
2023-03-27T07:20:28.372Z,24.10
2023-03-27T07:22:57.450Z,22.00
2023-03-27T07:25:26.353Z,23.70
2023-03-27T07:27:59.002Z,27.20
2023-03-27T07:30:28.993Z,27.50
2023-03-27T07:32:58.528Z,28.20
2023-03-27T07:35:26.937Z,34.40
2023-03-27T07:37:56.010Z,34.70
2023-03-27T07:40:33.381Z,33.00
2023-03-27T07:43:07.357Z,35.80
2023-03-27T07:45:37.422Z,33.10
2023-03-27T07:48:09.438Z,35.20
2023-03-27T07:50:39.106Z,40.30
2023-03-27T07:53:07.337Z,41.90
2023-03-27T07:55:37.630Z,34.20
2023-03-27T07:58:07.011Z,32.80
2023-03-27T08:00:36.716Z,37.60
2023-03-27T08:03:09.433Z,35.90
2023-03-27T08:05:38.385Z,34.00
2023-03-27T08:08:06.691Z,27.20
2023-03-27T08:10:35.370Z,24.50
2023-03-27T08:13:03.948Z,22.10
2023-03-27T08:15:32.281Z,20.90
2023-03-27T08:18:01.851Z,25.20
2023-03-27T08:20:30.249Z,33.40
2023-03-27T08:22:58.436Z,37.70
2023-03-27T08:25:27.770Z,32.00
2023-03-27T08:27:55.890Z,32.80
2023-03-27T08:30:23.964Z,31.10
2023-03-27T08:32:52.306Z,25.50
2023-03-27T08:35:22.052Z,23.70
2023-03-27T08:37:50.210Z,22.60
2023-03-27T08:40:21.496Z,23.10
2023-03-27T08:42:53.396Z,24.60
2023-03-27T08:45:25.672Z,29.30
2023-03-27T08:47:59.137Z,34.20
2023-03-27T08:50:34.578Z,36.10
2023-03-27T08:53:04.593Z,36.40
2023-03-27T08:55:40.250Z,38.80
2023-03-27T08:58:18.018Z,43.40
2023-03-27T09:00:48.456Z,33.00
2023-03-27T09:03:22.385Z,24.10
2023-03-27T09:05:56.243Z,22.70
2023-03-27T09:08:34.722Z,22.70
2023-03-27T09:11:09.868Z,16.00
2023-03-27T09:13:44.536Z,18.40
2023-03-27T09:16:19.359Z,9.70
2023-03-27T09:18:57.800Z,15.00
2023-03-27T09:21:36.182Z,15.30
2023-03-27T09:24:10.193Z,6.70
2023-03-27T09:26:38.763Z,7.70
2023-03-27T09:29:20.038Z,10.50
2023-03-27T09:31:50.350Z,8.50
2023-03-27T09:34:24.318Z,5.60
2023-03-27T09:36:54.335Z,13.90
2023-03-27T09:39:27.399Z,9.90
2023-03-27T09:42:00.504Z,12.70
2023-03-27T09:44:40.009Z,11.70
2023-03-27T09:47:14.267Z,7.40
2023-03-27T09:49:47.826Z,3.80
2023-03-27T09:52:36.120Z,9.50
2023-03-27T09:55:05.810Z,2.70
2023-03-27T09:57:37.354Z,3.30
2023-03-27T10:00:14.417Z,1.50
2023-03-27T10:02:42.503Z,4.90
2023-03-27T10:05:20.329Z,2.30
2023-03-27T10:07:49.896Z,6.50
2023-03-27T10:10:20.218Z,8.00
2023-03-27T10:12:54.153Z,6.50
2023-03-27T10:15:43.361Z,3.10
2023-03-27T10:18:25.006Z,4.90
2023-03-27T10:20:54.159Z,4.40
2023-03-27T10:23:26.625Z,6.50
2023-03-27T10:25:59.568Z,2.90
2023-03-27T10:28:30.479Z,1.00
2023-03-27T10:31:00.737Z,3.80
2023-03-27T10:33:33.569Z,6.90
2023-03-27T10:36:02.132Z,4.80
2023-03-27T10:38:33.616Z,2.40
2023-03-27T10:41:05.162Z,4.70
2023-03-27T10:43:40.120Z,5.20
2023-03-27T10:46:15.721Z,8.00
2023-03-27T10:48:53.163Z,3.60
2023-03-27T10:51:45.521Z,2.10
2023-03-27T10:54:25.962Z,1.00
2023-03-27T10:57:02.779Z,22.10
2023-03-27T10:59:41.897Z,50.50
2023-03-27T11:02:13.802Z,42.20
2023-03-27T11:04:48.975Z,27.70
2023-03-27T11:07:23.352Z,22.90
2023-03-27T11:10:00.162Z,35.10
2023-03-27T11:12:31.891Z,43.40
2023-03-27T11:15:04.807Z,49.60
2023-03-27T11:17:39.517Z,55.80
2023-03-27T11:20:19.394Z,55.50
2023-03-27T11:22:53.746Z,52.90
2023-03-27T11:25:32.138Z,59.20
2023-03-27T11:28:06.611Z,60.80
2023-03-27T11:30:39.679Z,47.50
2023-03-27T11:33:24.160Z,46.10
2023-03-27T11:35:56.489Z,50.30
2023-03-27T11:38:28.782Z,42.10
2023-03-27T11:40:59.083Z,43.40
2023-03-27T11:43:27.571Z,38.40
2023-03-27T11:46:08.075Z,46.10
2023-03-27T11:49:02.108Z,46.30
2023-03-27T11:51:42.748Z,46.90
2023-03-27T11:54:21.645Z,50.50
2023-03-27T11:56:55.403Z,51.10
2023-03-27T11:59:42.789Z,49.00
2023-03-27T12:02:35.054Z,48.50
2023-03-27T12:05:10.544Z,46.70
2023-03-27T12:07:51.720Z,44.90
2023-03-27T12:10:29.248Z,44.20
2023-03-27T12:13:38.520Z,48.70
2023-03-27T12:16:19.749Z,49.70
2023-03-27T12:19:03.859Z,46.10
2023-03-27T12:21:48.217Z,45.40
2023-03-27T12:24:26.357Z,45.80
2023-03-27T12:27:12.437Z,48.00
2023-03-27T12:29:57.195Z,47.50
2023-03-27T12:32:47.687Z,48.20
2023-03-27T12:35:21.494Z,48.40
2023-03-27T12:37:58.297Z,49.60
2023-03-27T12:40:29.891Z,48.80
2023-03-27T12:43:22.802Z,48.30
2023-03-27T12:46:15.650Z,49.60
2023-03-27T12:49:02.523Z,49.90
2023-03-27T12:51:44.238Z,49.40
2023-03-27T12:54:24.608Z,50.90
2023-03-27T12:56:59.652Z,48.30
2023-03-27T12:59:30.053Z,50.50
2023-03-27T13:02:42.243Z,48.70
2023-03-27T13:05:49.098Z,47.90
2023-03-27T13:08:33.986Z,46.90
2023-03-27T13:11:12.854Z,48.80
2023-03-27T13:14:10.512Z,50.60
2023-03-27T13:16:57.605Z,46.60
2023-03-27T13:19:37.459Z,44.40
2023-03-27T13:22:21.068Z,44.40
2023-03-27T13:25:05.520Z,43.60
2023-03-27T13:27:44.365Z,45.40
2023-03-27T13:30:44.034Z,45.50
2023-03-27T13:33:17.036Z,46.90
2023-03-27T13:36:07.792Z,45.90
2023-03-27T13:39:14.829Z,46.50
2023-03-27T13:42:03.351Z,46.60
2023-03-27T13:44:46.965Z,45.90
2023-03-27T13:47:46.588Z,47.70
2023-03-27T13:50:25.870Z,48.70
2023-03-27T13:53:13.281Z,46.80
2023-03-27T13:56:10.527Z,46.00
2023-03-27T13:58:53.624Z,43.10
2023-03-27T14:01:34.935Z,39.00
2023-03-27T14:04:33.270Z,38.90
2023-03-27T14:07:20.727Z,39.10
2023-03-27T14:10:09.809Z,39.20
2023-03-27T14:12:53.042Z,40.10
2023-03-27T14:15:38.784Z,41.30
2023-03-27T14:18:30.940Z,40.80
2023-03-27T14:21:01.834Z,41.00
2023-03-27T14:23:33.136Z,40.80
2023-03-27T14:26:06.788Z,39.80
2023-03-27T14:28:46.178Z,37.50
2023-03-27T14:31:18.907Z,38.80
2023-03-27T14:33:51.693Z,37.00
2023-03-27T14:36:26.020Z,36.10
2023-03-27T14:38:54.318Z,37.30
2023-03-27T14:41:25.513Z,35.90
2023-03-27T14:43:54.496Z,37.60
2023-03-27T14:46:24.044Z,39.30
2023-03-27T14:48:54.811Z,42.70
2023-03-27T14:51:34.719Z,43.30
2023-03-27T14:54:07.658Z,44.70
2023-03-27T14:56:41.857Z,43.90
2023-03-27T14:59:13.838Z,45.40
2023-03-27T15:01:42.275Z,45.40
2023-03-27T15:04:12.749Z,46.70
2023-03-27T15:06:41.637Z,46.20
2023-03-27T15:09:15.771Z,49.00
2023-03-27T15:11:49.294Z,51.60
2023-03-27T15:14:20.769Z,51.00
2023-03-27T15:16:55.189Z,47.90
2023-03-27T15:19:27.222Z,46.20
2023-03-27T15:22:01.354Z,44.00
2023-03-27T15:24:36.644Z,40.10
2023-03-27T15:27:07.960Z,36.80
2023-03-27T15:29:40.697Z,37.90
2023-03-27T15:32:14.933Z,35.50
2023-03-27T15:34:47.498Z,35.10
2023-03-27T15:37:19.797Z,33.80
2023-03-27T15:40:02.269Z,32.80
2023-03-27T15:42:46.762Z,33.20
2023-03-27T15:45:16.908Z,32.50
2023-03-27T15:47:45.597Z,30.50
2023-03-27T15:50:20.958Z,28.20
2023-03-27T15:52:50.853Z,28.70
2023-03-27T15:55:39.862Z,27.60
2023-03-27T15:58:24.381Z,20.00
2023-03-27T16:00:54.673Z,8.00
2023-03-27T16:03:25.522Z,8.10
2023-03-27T16:05:56.364Z,1.00
2023-03-27T16:08:29.986Z,1.00
2023-03-27T16:10:58.893Z,1.00
2023-03-27T16:13:34.134Z,1.00
2023-03-27T16:16:03.884Z,1.00
2023-03-27T16:18:35.047Z,1.00
2023-03-27T16:21:08.517Z,1.00
2023-03-27T16:23:37.457Z,1.00
2023-03-27T16:26:08.344Z,3.40
2023-03-27T16:28:37.766Z,3.80
2023-03-27T16:31:13.859Z,1.00
2023-03-27T16:33:42.956Z,1.00
2023-03-27T16:36:13.062Z,1.00
2023-03-27T16:38:43.481Z,1.00
2023-03-27T16:41:14.307Z,1.00
2023-03-27T16:43:44.711Z,1.00
2023-03-27T16:46:19.488Z,1.00
2023-03-27T16:48:47.599Z,1.00
2023-03-27T16:51:15.894Z,1.00
2023-03-27T16:53:43.924Z,1.00
2023-03-27T16:56:12.500Z,1.00
2023-03-27T16:58:40.988Z,1.00
2023-03-27T17:01:11.063Z,1.00
2023-03-27T17:03:39.502Z,1.00
2023-03-27T17:06:09.532Z,1.00
2023-03-27T17:08:38.095Z,1.00
2023-03-27T17:11:08.652Z,1.00
2023-03-27T17:13:37.335Z,1.00
2023-03-27T17:16:06.714Z,1.00
2023-03-27T17:18:36.473Z,1.00
2023-03-27T17:21:04.870Z,1.00
2023-03-27T17:23:33.072Z,1.00
2023-03-27T17:26:02.083Z,1.00
2023-03-27T17:28:30.995Z,1.00
2023-03-27T17:31:04.831Z,1.00
2023-03-27T17:33:34.953Z,1.00
2023-03-27T17:36:08.106Z,1.00
2023-03-27T17:38:36.357Z,1.00
2023-03-27T17:41:05.006Z,1.50
2023-03-27T17:43:33.274Z,2.40
2023-03-27T17:46:01.655Z,6.70
2023-03-27T17:48:30.225Z,3.80
2023-03-27T17:51:08.744Z,6.40
2023-03-27T17:53:38.217Z,5.70
2023-03-27T17:56:07.339Z,5.80
2023-03-27T17:58:37.032Z,9.90
2023-03-27T18:01:16.850Z,11.20
2023-03-27T18:03:46.062Z,8.80
2023-03-27T18:06:17.260Z,8.70
2023-03-27T18:08:45.774Z,10.00
2023-03-27T18:11:15.905Z,8.10
2023-03-27T18:13:44.797Z,10.70
2023-03-27T18:16:12.959Z,10.30
2023-03-27T18:18:41.702Z,9.40
2023-03-27T18:21:09.980Z,10.90
2023-03-27T18:23:45.965Z,8.90
2023-03-27T18:26:15.492Z,8.30
2023-03-27T18:28:44.137Z,9.90
2023-03-27T18:31:13.575Z,10.10
2023-03-27T18:33:41.555Z,10.60
2023-03-27T18:36:11.911Z,11.30
2023-03-27T18:38:42.896Z,14.50
2023-03-27T18:41:11.649Z,12.50
2023-03-27T18:43:39.721Z,24.30
2023-03-27T18:46:08.690Z,24.10
2023-03-27T18:48:37.043Z,26.80
2023-03-27T18:51:07.064Z,28.00
2023-03-27T18:53:35.320Z,23.70
2023-03-27T18:56:05.215Z,21.90
2023-03-27T18:58:33.874Z,22.60
2023-03-27T19:01:02.168Z,24.00
2023-03-27T19:03:34.680Z,27.60
2023-03-27T19:06:05.156Z,26.10
2023-03-27T19:08:33.474Z,26.60
2023-03-27T19:11:01.714Z,31.90
2023-03-27T19:13:31.245Z,33.90
2023-03-27T19:15:59.336Z,32.00
2023-03-27T19:18:29.995Z,36.00
2023-03-27T19:21:00.656Z,37.50
2023-03-27T19:23:28.871Z,40.50
2023-03-27T19:25:56.976Z,40.50
2023-03-27T19:28:25.066Z,38.30
2023-03-27T19:30:54.546Z,41.40
2023-03-27T19:33:22.461Z,43.80
2023-03-27T19:35:53.634Z,47.30
2023-03-27T19:38:21.760Z,47.80
2023-03-27T19:40:49.812Z,46.70
2023-03-27T19:43:18.817Z,51.00
2023-03-27T19:46:04.418Z,50.80
2023-03-27T19:48:42.677Z,52.00
2023-03-27T19:51:10.830Z,56.70
2023-03-27T19:53:38.956Z,54.80
2023-03-27T19:56:07.301Z,55.10
2023-03-27T19:58:35.393Z,61.90
2023-03-27T20:01:04.979Z,67.80
2023-03-27T20:03:33.264Z,62.50
2023-03-27T20:06:07.518Z,72.40
2023-03-27T20:08:38.207Z,68.90
2023-03-27T20:11:07.103Z,71.70
2023-03-27T20:13:49.001Z,75.00
2023-03-27T20:16:27.352Z,74.40
2023-03-27T20:19:04.356Z,78.50
2023-03-27T20:21:34.496Z,79.40
2023-03-27T20:24:02.881Z,78.30
2023-03-27T20:26:38.849Z,78.10
2023-03-27T20:29:07.531Z,80.50
2023-03-27T20:31:37.565Z,73.70
2023-03-27T20:34:06.475Z,72.30
2023-03-27T20:36:34.872Z,73.00
2023-03-27T20:39:06.318Z,75.60
2023-03-27T20:41:34.431Z,69.80
2023-03-27T20:44:02.774Z,72.00
2023-03-27T20:46:32.915Z,73.80
2023-03-27T20:49:03.464Z,75.10
2023-03-27T20:51:31.483Z,75.60
2023-03-27T20:54:00.205Z,74.90
2023-03-27T20:56:28.267Z,77.90
2023-03-27T20:58:56.323Z,75.70
2023-03-27T21:01:27.992Z,76.40
2023-03-27T21:03:58.352Z,74.90
2023-03-27T21:06:28.178Z,74.70
2023-03-27T21:08:56.438Z,71.60
2023-03-27T21:11:24.534Z,74.80
2023-03-27T21:13:52.585Z,71.20
2023-03-27T21:16:20.662Z,71.80
2023-03-27T21:18:48.759Z,73.50
2023-03-27T21:21:16.821Z,76.10
2023-03-27T21:23:48.009Z,76.30
2023-03-27T21:26:16.539Z,72.30
2023-03-27T21:28:44.587Z,67.70
2023-03-27T21:31:13.215Z,68.40
2023-03-27T21:33:41.334Z,68.00
2023-03-27T21:36:11.039Z,68.10
2023-03-27T21:38:39.242Z,66.40
2023-03-27T21:41:09.225Z,65.60
2023-03-27T21:43:37.260Z,65.70
2023-03-27T21:46:06.375Z,68.60
2023-03-27T21:48:34.486Z,66.90
2023-03-27T21:51:04.063Z,65.00
2023-03-27T21:53:32.368Z,62.00
2023-03-27T21:56:00.633Z,62.00
2023-03-27T21:58:30.264Z,59.30
2023-03-27T22:00:59.363Z,58.60
2023-03-27T22:03:30.099Z,62.40
2023-03-27T22:06:11.727Z,61.10
2023-03-27T22:08:41.735Z,59.10
2023-03-27T22:11:10.133Z,58.70
2023-03-27T22:13:40.189Z,56.10
2023-03-27T22:16:10.293Z,51.90
2023-03-27T22:18:38.433Z,47.80
2023-03-27T22:21:17.150Z,44.50
2023-03-27T22:23:45.978Z,46.40
2023-03-27T22:26:14.134Z,46.00
2023-03-27T22:28:43.642Z,47.10
2023-03-27T22:31:11.761Z,44.10
2023-03-27T22:33:40.075Z,45.40
2023-03-27T22:36:11.084Z,45.30
2023-03-27T22:38:40.206Z,45.50
2023-03-27T22:41:09.751Z,46.70
2023-03-27T22:43:38.072Z,47.90
2023-03-27T22:46:09.455Z,45.70
2023-03-27T22:48:37.906Z,46.00
2023-03-27T22:51:06.890Z,47.40
2023-03-27T22:53:36.269Z,45.70
2023-03-27T22:56:05.825Z,45.20
2023-03-27T22:58:33.922Z,47.50
2023-03-27T23:01:02.020Z,47.00
2023-03-27T23:03:31.540Z,46.20
2023-03-27T23:05:59.652Z,49.10
2023-03-27T23:08:29.319Z,47.60
2023-03-27T23:10:57.592Z,44.70
2023-03-27T23:13:26.015Z,44.70
2023-03-27T23:15:54.097Z,45.00
2023-03-27T23:18:24.520Z,44.30
2023-03-27T23:20:58.152Z,47.50
2023-03-27T23:23:27.618Z,47.40
2023-03-27T23:25:57.685Z,47.10
2023-03-27T23:28:26.447Z,49.10
2023-03-27T23:30:55.554Z,49.30
2023-03-27T23:33:25.243Z,48.50
2023-03-27T23:35:53.804Z,49.10
2023-03-27T23:38:23.377Z,45.80
2023-03-27T23:40:57.030Z,44.00
2023-03-27T23:43:26.029Z,42.60
2023-03-27T23:45:55.508Z,39.20
2023-03-27T23:48:23.714Z,39.00
2023-03-27T23:50:53.180Z,39.20
2023-03-27T23:53:22.036Z,38.80
2023-03-27T23:55:51.474Z,41.40
2023-03-27T23:58:19.334Z,41.90
